Time;durP1;ratioP1;P1;durP2;ratioP2;P2;SDS_P1;SDS_P2;PMS_P1;PMS_P2;Temp;Humidity;BMP_temperature;BMP_pressure;BME280_temperature;BME280_humidity;BME280_pressure;Samples;Min_cycle;Max_cycle;Signal;HPM_P1;HPM_P2
2023/06/16 00:01:41;;;;;;;4.50;3.33;;;17.60;84.20;;;;;;5112814;28;20067;-64
2023/06/16 00:04:08;;;;;;;3.88;3.13;;;17.50;84.60;;;;;;5112686;28;20059;-65
2023/06/16 00:06:33;;;;;;;3.70;3.28;;;17.50;84.80;;;;;;5094790;28;20056;-65
2023/06/16 00:09:00;;;;;;;6.00;3.70;;;17.50;84.70;;;;;;5112287;28;20063;-65
2023/06/16 00:11:29;;;;;;;8.02;3.08;;;17.50;85.10;;;;;;5125008;28;20514;-65
2023/06/16 00:13:56;;;;;;;3.90;3.20;;;17.40;85.10;;;;;;5115271;28;20027;-65
2023/06/16 00:16:23;;;;;;;9.38;3.80;;;17.40;85.30;;;;;;5133477;28;20164;-65
2023/06/16 00:18:53;;;;;;;6.80;3.30;;;17.40;85.10;;;;;;5133418;28;20051;-65
2023/06/16 00:21:25;;;;;;;4.22;3.38;;;17.40;85.00;;;;;;5133426;28;20451;-65
2023/06/16 00:23:51;;;;;;;4.57;3.53;;;17.40;85.70;;;;;;5133575;28;20116;-65
2023/06/16 00:26:17;;;;;;;8.43;3.72;;;17.40;85.00;;;;;;5132938;28;20129;-65
2023/06/16 00:28:43;;;;;;;4.00;3.30;;;17.40;85.00;;;;;;5133308;28;20027;-65
2023/06/16 00:31:08;;;;;;;4.53;3.45;;;17.40;85.10;;;;;;5133647;27;20066;-65
2023/06/16 00:33:34;;;;;;;3.78;3.05;;;17.40;85.40;;;;;;5137464;27;20037;-64
2023/06/16 00:36:00;;;;;;;5.70;3.55;;;17.30;85.40;;;;;;5137083;27;20087;-65
2023/06/16 00:38:27;;;;;;;5.72;3.10;;;17.30;85.90;;;;;;5137061;27;20031;-64
2023/06/16 00:40:53;;;;;;;8.02;3.70;;;17.30;86.10;;;;;;5137381;27;20031;-65
2023/06/16 00:43:18;;;;;;;4.03;3.15;;;17.20;86.30;;;;;;5118493;27;20038;-64
2023/06/16 00:45:44;;;;;;;3.78;3.08;;;17.20;86.40;;;;;;5133539;27;20051;-64
2023/06/16 00:48:10;;;;;;;5.72;3.28;;;17.20;86.50;;;;;;5136757;27;20030;-65
2023/06/16 00:50:36;;;;;;;6.93;2.80;;;17.10;86.80;;;;;;5137176;27;20031;-66
2023/06/16 00:53:02;;;;;;;6.35;3.47;;;17.00;87.00;;;;;;5136682;27;20072;-66
2023/06/16 00:55:29;;;;;;;5.28;3.47;;;17.00;87.10;;;;;;5137042;27;20067;-64
2023/06/16 00:57:55;;;;;;;4.95;3.05;;;17.10;87.30;;;;;;5137011;27;20030;-65
2023/06/16 01:00:21;;;;;;;4.10;2.92;;;17.00;87.10;;;;;;5136631;27;20027;-66
2023/06/16 01:02:48;;;;;;;4.30;3.40;;;17.00;87.40;;;;;;5103683;28;20036;-65
2023/06/16 01:05:17;;;;;;;3.63;3.03;;;17.00;87.20;;;;;;5115885;28;20044;-66
2023/06/16 01:08:25;;;;;;;5.93;3.05;;;17.00;87.40;;;;;;5116554;28;20019;-66
2023/06/16 01:11:32;;;;;;;4.47;3.08;;;17.00;87.40;;;;;;5105200;28;20036;-66
2023/06/16 01:14:07;;;;;;;4.97;3.08;;;16.90;87.20;;;;;;5075506;28;20135;-65
2023/06/16 01:16:35;;;;;;;6.90;3.45;;;16.90;86.90;;;;;;5116443;28;20034;-66
2023/06/16 01:19:19;;;;;;;6.70;3.05;;;16.90;87.00;;;;;;5115513;28;20028;-66
2023/06/16 01:22:00;;;;;;;4.82;3.22;;;16.90;86.90;;;;;;5116059;28;20019;-64
2023/06/16 01:24:28;;;;;;;5.55;3.10;;;16.90;87.00;;;;;;5116076;28;20118;-66
2023/06/16 01:26:57;;;;;;;6.88;3.22;;;16.80;87.10;;;;;;5115921;28;20069;-65
2023/06/16 01:29:24;;;;;;;3.78;2.92;;;16.80;87.10;;;;;;5115755;28;20368;-65
2023/06/16 01:31:54;;;;;;;5.90;2.92;;;16.80;86.80;;;;;;5115829;28;20031;-66
2023/06/16 01:34:20;;;;;;;5.68;3.22;;;16.80;86.80;;;;;;5115374;28;20031;-66
2023/06/16 01:36:47;;;;;;;6.55;3.30;;;16.80;87.00;;;;;;5115861;28;20062;-65
2023/06/16 01:39:15;;;;;;;4.20;3.13;;;16.80;87.20;;;;;;5115332;28;20477;-64
2023/06/16 01:41:41;;;;;;;5.53;3.40;;;16.70;87.20;;;;;;5115366;28;20453;-65
2023/06/16 01:44:07;;;;;;;3.50;2.67;;;16.70;87.30;;;;;;5096042;28;20036;-65
2023/06/16 01:46:34;;;;;;;3.50;3.10;;;16.70;87.70;;;;;;5115708;28;20039;-66
2023/06/16 01:49:00;;;;;;;4.45;3.08;;;16.60;87.50;;;;;;5115427;28;20034;-66
2023/06/16 01:51:26;;;;;;;5.07;3.20;;;16.60;87.70;;;;;;5115702;28;20027;-65
2023/06/16 01:53:53;;;;;;;3.47;3.08;;;16.60;87.80;;;;;;5115095;28;20050;-64
2023/06/16 01:56:19;;;;;;;4.45;3.30;;;16.60;87.80;;;;;;5114913;28;20043;-66
2023/06/16 01:58:45;;;;;;;4.45;3.10;;;16.70;87.90;;;;;;5115320;28;20055;-65
2023/06/16 02:01:18;;;;;;;3.45;2.78;;;16.70;87.50;;;;;;5114606;28;20062;-66
2023/06/16 02:03:48;;;;;;;4.55;2.80;;;16.80;87.20;;;;;;5115124;28;20024;-64
2023/06/16 02:06:24;;;;;;;5.28;3.10;;;16.80;87.00;;;;;;5114794;28;20020;-64
2023/06/16 02:08:52;;;;;;;5.25;2.90;;;16.80;86.70;;;;;;5114944;28;20024;-64
2023/06/16 02:11:19;;;;;;;4.95;3.08;;;16.90;86.40;;;;;;5114580;28;20023;-64
2023/06/16 02:13:45;;;;;;;5.07;3.10;;;16.90;85.80;;;;;;5132680;27;20424;-64
2023/06/16 02:16:11;;;;;;;4.95;3.55;;;16.90;85.60;;;;;;5134883;27;20032;-64
2023/06/16 02:18:39;;;;;;;4.18;2.90;;;16.90;85.50;;;;;;5135079;27;20019;-64
2023/06/16 02:21:04;;;;;;;5.95;2.90;;;17.00;85.40;;;;;;5134694;27;20372;-65
2023/06/16 02:23:30;;;;;;;4.25;3.05;;;17.00;85.00;;;;;;5135596;27;20079;-64
2023/06/16 02:25:56;;;;;;;5.72;3.08;;;17.00;84.90;;;;;;5135243;27;20027;-64
2023/06/16 02:28:22;;;;;;;3.35;2.92;;;16.90;85.20;;;;;;5134587;27;20384;-65
2023/06/16 02:30:47;;;;;;;3.80;3.05;;;16.90;85.40;;;;;;5135204;27;20019;-65
2023/06/16 02:33:13;;;;;;;5.35;3.33;;;16.90;85.30;;;;;;5134406;27;20030;-65
2023/06/16 02:35:39;;;;;;;7.22;3.35;;;16.80;85.50;;;;;;5134851;27;20038;-65
2023/06/16 02:38:05;;;;;;;6.13;3.22;;;16.80;85.60;;;;;;5134549;27;20019;-67
2023/06/16 02:40:30;;;;;;;3.50;2.70;;;16.80;85.70;;;;;;5135110;27;20455;-66
2023/06/16 02:42:56;;;;;;;4.82;2.97;;;16.90;85.40;;;;;;5135116;27;20034;-66
2023/06/16 02:45:22;;;;;;;5.70;3.10;;;16.90;85.10;;;;;;5134217;27;20114;-65
2023/06/16 02:47:47;;;;;;;4.10;3.00;;;16.80;84.90;;;;;;5135051;27;20055;-66
2023/06/16 02:50:13;;;;;;;6.20;3.03;;;16.70;85.20;;;;;;5115957;27;20027;-66
2023/06/16 02:52:42;;;;;;;4.35;3.00;;;16.70;85.60;;;;;;5131586;27;20027;-65
2023/06/16 02:55:12;;;;;;;5.00;3.10;;;16.80;85.60;;;;;;5133355;27;20033;-66
2023/06/16 02:57:38;;;;;;;5.20;2.92;;;16.80;85.60;;;;;;5134785;27;20367;-65
2023/06/16 03:00:09;;;;;;;4.63;2.80;;;16.80;85.50;;;;;;5134625;27;20106;-65
2023/06/16 03:02:35;;;;;;;4.45;2.92;;;16.70;85.60;;;;;;5134841;27;20357;-65
2023/06/16 03:05:03;;;;;;;4.45;2.78;;;16.60;86.10;;;;;;5134535;27;20031;-65
2023/06/16 03:07:31;;;;;;;4.28;2.65;;;16.60;86.50;;;;;;5133963;27;20031;-64
2023/06/16 03:09:57;;;;;;;5.43;3.22;;;16.50;86.60;;;;;;5132384;27;20030;-64
2023/06/16 03:12:23;;;;;;;5.85;3.25;;;16.50;86.70;;;;;;5133903;27;20066;-65
2023/06/16 03:14:48;;;;;;;6.30;3.50;;;16.50;87.10;;;;;;5116055;27;20066;-64
2023/06/16 03:17:14;;;;;;;3.88;3.05;;;16.60;87.10;;;;;;5133472;27;20026;-65
2023/06/16 03:19:40;;;;;;;4.40;3.33;;;16.60;87.10;;;;;;5134108;27;20120;-64
2023/06/16 03:22:06;;;;;;;4.60;3.40;;;16.60;87.20;;;;;;5134379;27;20023;-65
2023/06/16 03:24:33;;;;;;;4.70;3.25;;;16.60;87.50;;;;;;5133810;27;20520;-66
2023/06/16 03:26:59;;;;;;;4.47;3.58;;;16.50;87.70;;;;;;5134108;27;20463;-65
2023/06/16 03:29:25;;;;;;;5.53;3.70;;;16.50;88.30;;;;;;5133749;27;20035;-66
2023/06/16 03:31:51;;;;;;;4.68;3.72;;;16.40;88.70;;;;;;5134007;27;20039;-65
2023/06/16 03:34:16;;;;;;;4.05;3.55;;;16.40;89.50;;;;;;5133723;27;20100;-66
2023/06/16 03:36:42;;;;;;;7.30;4.28;;;16.50;89.70;;;;;;5134084;27;20114;-65
2023/06/16 03:39:08;;;;;;;5.90;4.00;;;16.50;89.60;;;;;;5133956;27;20033;-65
2023/06/16 03:41:34;;;;;;;7.43;3.55;;;16.40;90.00;;;;;;5133436;27;20430;-65
2023/06/16 03:44:00;;;;;;;8.95;4.50;;;16.40;90.30;;;;;;5133910;27;20564;-65
2023/06/16 03:46:29;;;;;;;4.97;3.40;;;16.30;90.40;;;;;;5133133;27;20495;-66
2023/06/16 03:48:56;;;;;;;6.53;3.85;;;16.30;90.70;;;;;;5133831;27;20038;-66
2023/06/16 03:51:24;;;;;;;5.75;3.40;;;16.30;90.80;;;;;;5133367;27;20043;-66
2023/06/16 03:53:50;;;;;;;4.65;3.72;;;16.30;90.90;;;;;;5133719;27;20026;-66
2023/06/16 03:56:16;;;;;;;6.45;3.85;;;16.30;91.10;;;;;;5133356;27;20063;-66
2023/06/16 03:58:42;;;;;;;6.40;4.15;;;16.30;91.10;;;;;;5133911;27;20499;-66
2023/06/16 04:01:09;;;;;;;6.43;3.90;;;16.30;91.20;;;;;;5133744;27;20502;-66
2023/06/16 04:03:35;;;;;;;5.65;3.72;;;16.40;91.40;;;;;;5122993;28;20424;-66
2023/06/16 04:06:01;;;;;;;10.88;3.70;;;16.40;91.30;;;;;;5112502;28;20023;-65
2023/06/16 04:08:27;;;;;;;6.15;3.55;;;16.50;91.10;;;;;;5112506;28;20074;-66
2023/06/16 04:10:57;;;;;;;5.97;3.88;;;16.60;90.90;;;;;;5113120;28;20421;-65
2023/06/16 04:13:23;;;;;;;4.87;4.20;;;16.60;90.80;;;;;;5112795;28;20031;-65
2023/06/16 04:15:49;;;;;;;7.18;3.65;;;16.80;90.90;;;;;;5113092;28;20252;-66
2023/06/16 04:18:15;;;;;;;7.32;4.05;;;16.90;90.70;;;;;;5112675;28;20038;-66
2023/06/16 04:20:40;;;;;;;4.03;3.53;;;17.00;90.40;;;;;;5094740;28;20027;-66
2023/06/16 04:23:09;;;;;;;6.32;3.70;;;17.10;89.80;;;;;;5112584;28;20057;-66
2023/06/16 04:25:38;;;;;;;6.10;3.88;;;17.20;89.00;;;;;;5112508;28;20027;-66
2023/06/16 04:28:05;;;;;;;8.10;3.63;;;17.30;88.40;;;;;;5112542;28;20413;-66
2023/06/16 04:30:33;;;;;;;8.18;4.13;;;17.40;88.10;;;;;;5094452;28;20027;-66
2023/06/16 04:33:01;;;;;;;5.05;4.00;;;17.50;87.10;;;;;;5112668;28;20024;-65
2023/06/16 04:35:29;;;;;;;6.93;3.28;;;17.60;86.70;;;;;;5112380;28;20039;-65
2023/06/16 04:37:56;;;;;;;4.70;3.58;;;17.80;85.90;;;;;;5112689;28;20054;-65
2023/06/16 04:40:23;;;;;;;5.53;3.47;;;18.00;85.30;;;;;;5112261;28;20032;-65
2023/06/16 04:42:49;;;;;;;6.75;3.75;;;18.10;84.10;;;;;;5112501;28;20027;-65
2023/06/16 04:45:15;;;;;;;5.90;3.45;;;18.30;83.40;;;;;;5114633;28;20062;-65
2023/06/16 04:47:42;;;;;;;4.63;3.13;;;18.50;82.20;;;;;;5112855;28;20020;-65
2023/06/16 04:50:09;;;;;;;5.35;3.75;;;18.80;80.80;;;;;;5112906;28;20051;-64
2023/06/16 04:52:39;;;;;;;4.72;3.65;;;19.00;80.10;;;;;;5111882;28;20464;-66
2023/06/16 04:55:06;;;;;;;4.67;3.30;;;19.30;78.70;;;;;;5112665;28;20035;-66
2023/06/16 04:57:33;;;;;;;4.78;3.17;;;19.70;77.50;;;;;;5112237;28;20031;-66
2023/06/16 05:00:00;;;;;;;3.83;3.35;;;20.10;76.00;;;;;;5112542;28;20035;-64
2023/06/16 05:02:26;;;;;;;7.72;3.38;;;20.60;73.60;;;;;;5112029;28;20111;-65
2023/06/16 05:04:52;;;;;;;6.90;3.50;;;21.00;71.80;;;;;;5112938;28;20032;-65
2023/06/16 05:07:18;;;;;;;3.72;3.28;;;21.40;70.30;;;;;;5112718;28;20035;-65
2023/06/16 05:09:44;;;;;;;5.18;3.15;;;21.60;67.70;;;;;;5114641;28;20452;-65
2023/06/16 05:12:09;;;;;;;8.38;3.88;;;22.10;67.30;;;;;;5114905;28;20027;-65
2023/06/16 05:14:35;;;;;;;4.18;3.30;;;22.60;65.90;;;;;;5111954;28;20526;-65
2023/06/16 05:17:01;;;;;;;4.18;3.30;;;22.90;63.80;;;;;;5112581;28;20024;-66
2023/06/16 05:19:27;;;;;;;6.00;3.30;;;23.20;62.40;;;;;;5123926;27;20027;-66
2023/06/16 05:21:53;;;;;;;6.15;3.05;;;23.50;61.50;;;;;;5136584;27;20051;-66
2023/06/16 05:24:18;;;;;;;7.05;3.42;;;23.70;60.40;;;;;;5136216;27;20065;-66
2023/06/16 05:26:44;;;;;;;3.78;3.20;;;23.80;60.40;;;;;;5118337;27;20388;-66
2023/06/16 05:29:10;;;;;;;3.95;3.08;;;24.00;59.60;;;;;;5136518;27;20027;-66
2023/06/16 05:31:35;;;;;;;5.57;3.33;;;24.10;59.30;;;;;;5136062;27;20068;-66
2023/06/16 05:34:01;;;;;;;5.57;3.47;;;24.30;58.20;;;;;;5136286;27;20059;-66
2023/06/16 05:36:29;;;;;;;8.90;3.10;;;24.40;57.20;;;;;;5135971;27;20031;-66
2023/06/16 05:38:55;;;;;;;11.07;3.30;;;24.60;57.10;;;;;;5136207;27;20030;-66
2023/06/16 05:41:24;;;;;;;6.60;3.25;;;24.60;56.50;;;;;;5135386;27;20360;-66
2023/06/16 05:43:51;;;;;;;5.65;3.40;;;24.70;56.80;;;;;;5136133;27;20023;-65
2023/06/16 05:46:17;;;;;;;4.82;3.13;;;24.90;55.30;;;;;;5136180;27;20055;-66
2023/06/16 05:48:43;;;;;;;3.50;3.00;;;24.90;55.20;;;;;;5117212;27;20087;-66
2023/06/16 05:51:09;;;;;;;6.03;3.00;;;25.00;56.10;;;;;;5136123;27;20027;-65
2023/06/16 05:53:35;;;;;;;4.28;3.30;;;25.20;54.70;;;;;;5117130;27;20031;-66
2023/06/16 05:56:00;;;;;;;3.83;2.83;;;25.40;54.50;;;;;;5135822;27;20030;-66
2023/06/16 05:58:26;;;;;;;5.03;3.20;;;25.70;54.40;;;;;;5135702;27;20081;-66
2023/06/16 06:00:52;;;;;;;4.45;2.90;;;26.30;53.70;;;;;;5135556;27;20047;-66
2023/06/16 06:03:17;;;;;;;5.57;2.88;;;26.90;52.30;;;;;;5135739;27;20107;-65
2023/06/16 06:05:43;;;;;;;6.10;3.10;;;27.20;50.10;;;;;;5135278;27;20087;-65
2023/06/16 06:08:08;;;;;;;4.38;2.85;;;27.60;50.00;;;;;;5135910;27;20524;-65
2023/06/16 06:10:34;;;;;;;4.25;3.05;;;28.40;48.60;;;;;;5120613;27;20038;-65
2023/06/16 06:13:04;;;;;;;5.75;2.72;;;28.70;47.60;;;;;;5115000;28;20091;-65
2023/06/16 06:15:29;;;;;;;3.75;2.80;;;29.50;47.10;;;;;;5114244;28;20430;-65
2023/06/16 06:17:55;;;;;;;6.53;3.00;;;29.80;45.00;;;;;;5114557;28;20031;-65
2023/06/16 06:20:21;;;;;;;3.67;2.40;;;30.10;44.70;;;;;;5114605;28;20024;-70
2023/06/16 06:22:46;;;;;;;3.88;2.10;;;30.70;42.90;;;;;;5114753;28;20027;-64
2023/06/16 06:25:13;;;;;;;5.40;2.45;;;31.20;42.30;;;;;;5115140;28;20418;-65
2023/06/16 06:27:39;;;;;;;13.13;2.58;;;31.60;41.00;;;;;;5114322;28;20059;-65
2023/06/16 06:30:06;;;;;;;4.53;2.30;;;32.00;40.80;;;;;;5114542;28;20059;-65
2023/06/16 06:32:32;;;;;;;6.25;2.45;;;32.50;39.30;;;;;;5114216;28;20115;-65
2023/06/16 06:34:57;;;;;;;3.92;2.40;;;32.90;38.90;;;;;;5114701;28;20062;-65
2023/06/16 06:37:29;;;;;;;4.50;2.30;;;33.30;38.80;;;;;;5127503;27;20035;-66
2023/06/16 06:39:55;;;;;;;4.00;2.42;;;33.40;37.90;;;;;;5135194;27;20019;-65
2023/06/16 06:42:26;;;;;;;3.47;2.40;;;34.00;37.10;;;;;;5134934;27;20038;-64
2023/06/16 06:44:52;;;;;;;7.28;2.40;;;34.20;36.30;;;;;;5134760;27;20027;-65
2023/06/16 06:47:18;;;;;;;2.88;2.20;;;34.70;36.20;;;;;;5134807;27;20049;-65
2023/06/16 06:49:43;;;;;;;3.50;2.55;;;34.50;35.00;;;;;;5134465;27;20023;-65
2023/06/16 06:52:09;;;;;;;5.50;2.50;;;34.50;34.80;;;;;;5135188;27;20031;-66
2023/06/16 06:54:34;;;;;;;4.57;2.20;;;34.30;34.70;;;;;;5134180;27;20034;-66
2023/06/16 06:57:00;;;;;;;6.40;3.60;;;34.30;34.70;;;;;;5134485;27;20076;-66
2023/06/16 06:59:26;;;;;;;4.75;2.53;;;34.00;34.60;;;;;;5134250;27;20027;-66
2023/06/16 07:01:51;;;;;;;4.63;2.60;;;33.80;34.30;;;;;;5134654;27;20055;-66
2023/06/16 07:04:17;;;;;;;4.25;2.30;;;33.90;35.00;;;;;;5134257;27;20383;-64
2023/06/16 07:06:42;;;;;;;3.78;2.20;;;34.20;35.40;;;;;;5134094;27;20030;-65
2023/06/16 07:09:08;;;;;;;7.70;2.67;;;34.20;34.90;;;;;;5134596;27;20023;-66
2023/06/16 07:11:34;;;;;;;3.15;2.60;;;34.20;35.30;;;;;;5133708;27;20023;-66
2023/06/16 07:14:01;;;;;;;3.40;2.30;;;34.10;34.20;;;;;;5134276;27;20035;-66
2023/06/16 07:16:28;;;;;;;4.35;2.42;;;33.40;35.00;;;;;;5133964;27;20023;-66
2023/06/16 07:18:53;;;;;;;2.97;2.30;;;33.90;34.30;;;;;;5111843;27;20480;-66
2023/06/16 07:21:19;;;;;;;2.42;2.22;;;34.00;33.20;;;;;;5113373;27;20097;-66
2023/06/16 07:23:44;;;;;;;4.85;2.50;;;33.80;33.70;;;;;;5112891;28;20190;-66
2023/06/16 07:26:10;;;;;;;3.78;2.20;;;34.20;33.90;;;;;;5113499;28;20024;-66
2023/06/16 07:28:36;;;;;;;5.47;2.45;;;34.20;33.00;;;;;;5112810;28;20127;-66
2023/06/16 07:31:02;;;;;;;6.63;3.03;;;34.30;33.10;;;;;;5113334;28;20020;-66
2023/06/16 07:33:28;;;;;;;3.25;2.42;;;33.90;32.10;;;;;;5094286;28;20034;-66
2023/06/16 07:35:53;;;;;;;4.40;2.60;;;32.90;33.00;;;;;;5113343;28;20071;-66
2023/06/16 07:38:19;;;;;;;4.13;2.83;;;32.90;33.60;;;;;;5113324;28;20019;-66
2023/06/16 07:40:45;;;;;;;4.30;2.45;;;33.10;34.40;;;;;;5112132;28;20019;-66
2023/06/16 07:43:11;;;;;;;3.95;2.70;;;33.00;34.40;;;;;;5113431;28;20456;-66
2023/06/16 07:45:36;;;;;;;3.38;2.63;;;33.10;34.30;;;;;;5112519;28;20071;-66
2023/06/16 07:48:03;;;;;;;5.80;2.35;;;33.60;35.00;;;;;;5113374;28;20028;-66
2023/06/16 07:50:29;;;;;;;3.20;2.50;;;33.20;34.00;;;;;;5113196;28;20077;-66
2023/06/16 07:52:54;;;;;;;3.30;2.67;;;33.40;33.80;;;;;;5112691;28;20028;-66
2023/06/16 07:55:20;;;;;;;7.45;2.70;;;33.60;33.30;;;;;;5113174;28;20426;-65
2023/06/16 07:57:46;;;;;;;3.45;2.53;;;33.40;33.40;;;;;;5112704;28;20024;-66
2023/06/16 08:00:14;;;;;;;3.72;3.10;;;33.40;34.50;;;;;;5113052;28;20024;-66
2023/06/16 08:02:43;;;;;;;4.75;2.63;;;33.60;34.60;;;;;;5112297;28;20524;-66
2023/06/16 08:05:10;;;;;;;5.07;2.38;;;33.90;33.90;;;;;;5113071;28;20477;-66
2023/06/16 08:07:36;;;;;;;5.10;2.80;;;33.90;33.90;;;;;;5112441;28;20384;-65
2023/06/16 08:10:04;;;;;;;3.25;2.40;;;33.80;34.30;;;;;;5113057;28;20028;-64
2023/06/16 08:12:30;;;;;;;3.75;2.50;;;33.20;34.70;;;;;;5112229;28;20074;-65
2023/06/16 08:14:56;;;;;;;4.72;2.53;;;33.10;34.90;;;;;;5112864;28;20032;-64
2023/06/16 08:17:22;;;;;;;4.45;2.65;;;33.10;34.70;;;;;;5112750;28;20035;-64
2023/06/16 08:19:48;;;;;;;7.10;2.67;;;33.20;34.60;;;;;;5123831;28;20088;-66
2023/06/16 08:22:13;;;;;;;2.78;2.50;;;33.20;35.00;;;;;;5132974;28;20094;-66
2023/06/16 08:24:39;;;;;;;8.30;2.80;;;32.60;34.60;;;;;;5132665;28;20015;-65
2023/06/16 08:27:06;;;;;;;3.42;2.88;;;32.60;33.00;;;;;;5133489;28;20031;-65
2023/06/16 08:29:33;;;;;;;5.25;2.80;;;31.60;34.20;;;;;;5132839;28;20110;-65
2023/06/16 08:31:58;;;;;;;5.45;2.70;;;31.20;35.40;;;;;;5133328;28;20450;-65
2023/06/16 08:34:24;;;;;;;6.38;2.90;;;30.90;36.00;;;;;;5133464;28;20046;-65
2023/06/16 08:36:50;;;;;;;4.30;2.88;;;30.70;35.80;;;;;;5132679;28;20550;-65
2023/06/16 08:39:16;;;;;;;3.25;2.45;;;30.50;36.00;;;;;;5133010;28;20066;-66
2023/06/16 08:41:41;;;;;;;3.97;2.67;;;29.60;36.90;;;;;;5124016;28;20402;-65
2023/06/16 08:44:09;;;;;;;5.75;2.90;;;29.00;37.60;;;;;;5112707;28;20036;-64
2023/06/16 08:46:36;;;;;;;3.20;2.90;;;28.80;38.10;;;;;;5112270;28;20125;-65
2023/06/16 08:49:03;;;;;;;3.80;2.78;;;28.40;39.20;;;;;;5112173;28;20385;-64
2023/06/16 08:51:34;;;;;;;6.45;3.13;;;28.20;38.40;;;;;;5112528;28;20024;-64
2023/06/16 08:54:03;;;;;;;3.90;2.97;;;27.90;39.80;;;;;;5116447;28;20039;-64
2023/06/16 08:56:33;;;;;;;6.97;3.28;;;27.60;40.80;;;;;;5116159;28;20042;-65
2023/06/16 08:59:05;;;;;;;7.88;3.25;;;27.40;41.30;;;;;;5116546;28;20031;-64
2023/06/16 09:01:34;;;;;;;7.75;3.25;;;27.40;41.80;;;;;;5116181;28;20059;-64
2023/06/16 09:04:00;;;;;;;6.57;3.28;;;27.30;41.40;;;;;;5116243;28;20337;-65
2023/06/16 09:06:26;;;;;;;5.38;3.10;;;27.40;42.50;;;;;;5116070;28;20024;-65
2023/06/16 09:08:55;;;;;;;7.47;3.15;;;27.20;41.60;;;;;;5115613;28;20110;-65
2023/06/16 09:11:24;;;;;;;4.18;3.20;;;27.00;42.30;;;;;;5115782;28;20069;-65
2023/06/16 09:13:55;;;;;;;6.85;3.55;;;26.90;42.40;;;;;;5114968;28;20027;-65
2023/06/16 09:16:22;;;;;;;6.32;3.22;;;27.00;43.50;;;;;;5115973;28;20024;-65
2023/06/16 09:18:49;;;;;;;6.70;3.05;;;26.70;41.70;;;;;;5115337;28;20464;-66
2023/06/16 09:21:22;;;;;;;5.50;3.30;;;26.80;42.40;;;;;;5109908;27;20027;-66
2023/06/16 09:23:56;;;;;;;7.60;3.53;;;26.50;42.10;;;;;;5117644;27;20035;-66
2023/06/16 09:26:23;;;;;;;6.93;2.97;;;26.40;42.40;;;;;;5117985;27;20491;-65
2023/06/16 09:28:49;;;;;;;4.50;3.00;;;26.20;41.40;;;;;;5135804;27;20031;-66
2023/06/16 09:31:15;;;;;;;7.43;3.35;;;26.20;41.70;;;;;;5136644;27;20030;-65
2023/06/16 09:33:41;;;;;;;3.90;3.22;;;26.20;43.10;;;;;;5135536;27;20066;-65
2023/06/16 09:36:09;;;;;;;5.72;2.95;;;26.30;43.30;;;;;;5136266;27;20035;-65
2023/06/16 09:38:38;;;;;;;4.82;3.08;;;26.50;45.30;;;;;;5135814;27;20109;-68
2023/06/16 09:41:16;;;;;;;4.43;3.20;;;26.40;44.20;;;;;;5135881;27;20019;-65
2023/06/16 09:43:43;;;;;;;8.32;3.28;;;26.50;43.90;;;;;;5135713;27;20066;-66
2023/06/16 09:46:12;;;;;;;9.05;3.08;;;26.60;43.70;;;;;;5135963;27;20046;-65
2023/06/16 09:48:48;;;;;;;3.65;2.88;;;26.50;41.40;;;;;;5135539;27;20027;-66
2023/06/16 09:51:22;;;;;;;5.35;3.92;;;26.50;42.00;;;;;;5135944;27;20027;-65
2023/06/16 09:53:49;;;;;;;4.15;3.00;;;26.50;41.80;;;;;;5135328;27;20023;-65
2023/06/16 09:56:18;;;;;;;6.55;3.10;;;26.50;42.50;;;;;;5136057;27;20035;-65
2023/06/16 09:58:45;;;;;;;8.07;3.10;;;26.20;40.70;;;;;;5117565;27;20127;-66
2023/06/16 10:01:13;;;;;;;6.15;3.10;;;26.10;41.90;;;;;;5135824;27;20023;-65
2023/06/16 10:03:43;;;;;;;5.20;2.97;;;26.10;42.90;;;;;;5134659;27;20023;-66
2023/06/16 10:06:19;;;;;;;6.40;3.35;;;26.00;43.30;;;;;;5135794;27;20023;-66
2023/06/16 10:08:51;;;;;;;8.13;3.40;;;26.20;43.70;;;;;;5134860;27;20451;-65
2023/06/16 10:11:19;;;;;;;5.97;3.30;;;26.30;44.60;;;;;;5135164;27;20031;-65
2023/06/16 10:14:07;;;;;;;5.53;3.03;;;26.30;40.80;;;;;;5134964;27;20035;-65
2023/06/16 10:16:35;;;;;;;3.03;2.47;;;26.20;41.50;;;;;;5135354;27;20027;-65
2023/06/16 10:19:04;;;;;;;5.68;2.95;;;26.00;42.70;;;;;;5134863;27;20030;-65
2023/06/16 10:21:31;;;;;;;7.90;3.30;;;25.80;42.70;;;;;;5135256;27;20489;-65
2023/06/16 10:23:57;;;;;;;5.70;2.72;;;25.70;42.00;;;;;;5117434;27;20035;-65
2023/06/16 10:26:23;;;;;;;4.03;3.08;;;25.80;42.00;;;;;;5126520;27;20037;-65
2023/06/16 10:28:51;;;;;;;5.75;3.30;;;25.80;42.60;;;;;;5115293;28;20121;-65
2023/06/16 10:31:18;;;;;;;6.80;3.40;;;25.70;42.20;;;;;;5115021;28;20024;-65
2023/06/16 10:33:54;;;;;;;5.40;2.97;;;25.80;42.70;;;;;;5113864;28;20032;-65
2023/06/16 10:36:31;;;;;;;4.75;3.22;;;25.80;41.50;;;;;;5114354;28;20027;-64
2023/06/16 10:39:03;;;;;;;6.30;3.50;;;25.70;41.80;;;;;;5113790;28;20037;-65
2023/06/16 10:41:29;;;;;;;4.97;3.67;;;25.70;39.80;;;;;;5113995;28;20023;-65
2023/06/16 10:43:56;;;;;;;7.90;3.30;;;25.80;41.60;;;;;;5116081;27;20070;-65
2023/06/16 10:46:21;;;;;;;5.28;3.15;;;25.70;40.60;;;;;;5114306;28;20446;-65
2023/06/16 10:49:05;;;;;;;8.93;3.42;;;25.60;42.00;;;;;;5114022;28;20032;-65
2023/06/16 10:51:48;;;;;;;9.30;3.42;;;25.50;40.20;;;;;;5114121;28;20065;-65
2023/06/16 10:54:37;;;;;;;7.35;3.30;;;25.70;41.60;;;;;;5113872;28;20031;-65
2023/06/16 10:57:07;;;;;;;4.15;3.15;;;25.70;41.10;;;;;;5113421;28;20465;-65
2023/06/16 10:59:54;;;;;;;3.33;2.88;;;25.70;41.90;;;;;;5113903;28;20080;-65
2023/06/16 11:02:27;;;;;;;6.40;3.80;;;25.80;43.20;;;;;;5113857;28;20036;-65
2023/06/16 11:05:08;;;;;;;7.78;3.17;;;25.70;42.20;;;;;;5113049;28;20080;-65
2023/06/16 11:07:52;;;;;;;;;;;25.80;43.30;;;;;;5114037;28;20521;-65
2023/06/16 11:10:21;;;;;;;4.18;2.83;;;25.90;42.20;;;;;;5113542;28;20356;-66
2023/06/16 11:12:47;;;;;;;10.05;3.30;;;26.00;41.30;;;;;;5118206;27;20103;-65
2023/06/16 11:15:13;;;;;;;5.65;3.17;;;26.10;40.60;;;;;;5133374;27;20023;-65
2023/06/16 11:17:49;;;;;;;5.53;3.28;;;26.10;40.40;;;;;;5133490;27;20051;-65
2023/06/16 11:20:16;;;;;;;5.45;3.15;;;26.20;40.70;;;;;;5134637;27;20384;-65
2023/06/16 11:22:43;;;;;;;5.20;3.25;;;26.30;40.80;;;;;;5133957;27;20035;-65
2023/06/16 11:25:09;;;;;;;10.00;3.70;;;26.40;42.80;;;;;;5134172;27;20106;-65
2023/06/16 11:27:36;;;;;;;4.97;3.70;;;26.30;42.80;;;;;;5133792;27;20051;-66
2023/06/16 11:30:05;;;;;;;4.45;3.13;;;26.10;40.50;;;;;;5133358;27;20032;-66
2023/06/16 11:32:34;;;;;;;5.68;3.92;;;26.10;40.30;;;;;;5133956;27;20037;-65
2023/06/16 11:35:02;;;;;;;7.03;3.42;;;26.20;40.30;;;;;;5133528;27;20034;-65
2023/06/16 11:37:47;;;;;;;4.03;3.15;;;26.00;41.60;;;;;;5115252;27;20031;-65
2023/06/16 11:40:17;;;;;;;4.95;3.00;;;25.90;42.70;;;;;;5133933;27;20023;-65
2023/06/16 11:42:43;;;;;;;4.80;3.10;;;25.90;43.30;;;;;;5134001;27;20456;-69
2023/06/16 11:45:09;;;;;;;6.60;3.50;;;26.00;43.30;;;;;;5133536;27;20059;-66
2023/06/16 11:47:35;;;;;;;5.65;3.55;;;26.10;42.10;;;;;;5133896;27;20038;-65
2023/06/16 11:50:03;;;;;;;5.38;3.22;;;26.20;42.50;;;;;;5133377;27;20027;-65
2023/06/16 11:52:30;;;;;;;6.07;3.50;;;26.30;42.20;;;;;;5133225;27;20031;-65
2023/06/16 11:54:57;;;;;;;5.20;3.30;;;26.40;42.30;;;;;;5132818;27;20464;-66
2023/06/16 11:57:22;;;;;;;4.65;3.40;;;26.30;41.20;;;;;;5133449;27;20464;-65
2023/06/16 11:59:48;;;;;;;7.25;3.92;;;26.30;41.70;;;;;;5133461;27;20080;-66
2023/06/16 12:02:15;;;;;;;9.25;3.50;;;26.10;41.50;;;;;;5133553;27;20019;-65
2023/06/16 12:04:41;;;;;;;7.80;3.85;;;25.80;41.80;;;;;;5133228;27;20030;-64
2023/06/16 12:07:06;;;;;;;5.55;3.90;;;25.80;41.90;;;;;;5114328;28;20050;-64
2023/06/16 12:09:36;;;;;;;5.68;4.25;;;25.70;40.50;;;;;;5133318;28;20058;-66
2023/06/16 12:12:04;;;;;;;7.55;4.63;;;25.60;37.10;;;;;;5132799;28;20132;-66
2023/06/16 12:14:34;;;;;;;8.98;5.30;;;25.60;37.50;;;;;;5115016;28;20031;-66
2023/06/16 12:17:00;;;;;;;7.47;5.55;;;25.50;35.90;;;;;;5133066;28;20068;-66
2023/06/16 12:19:27;;;;;;;8.35;5.13;;;25.40;35.50;;;;;;5114467;28;20027;-66
2023/06/16 12:22:00;;;;;;;8.88;5.05;;;25.40;39.00;;;;;;5114599;28;20353;-66
2023/06/16 12:24:26;;;;;;;7.75;4.63;;;25.50;37.10;;;;;;5133410;28;20028;-66
2023/06/16 12:26:52;;;;;;;11.05;5.03;;;25.50;37.20;;;;;;5133259;27;20023;-66
2023/06/16 12:29:18;;;;;;;10.35;4.10;;;25.50;37.30;;;;;;5137573;27;20463;-66
2023/06/16 12:32:04;;;;;;;7.93;4.43;;;25.50;37.70;;;;;;5137363;27;20114;-66
2023/06/16 12:34:32;;;;;;;10.73;4.53;;;25.50;38.60;;;;;;5137156;27;20024;-66
2023/06/16 12:37:06;;;;;;;8.07;4.30;;;25.60;39.50;;;;;;5122177;27;20087;-66
2023/06/16 12:39:33;;;;;;;5.53;3.70;;;25.50;39.90;;;;;;5116761;28;20107;-66
2023/06/16 12:42:07;;;;;;;5.20;3.80;;;25.50;40.10;;;;;;5116052;28;20028;-66
2023/06/16 12:44:45;;;;;;;7.05;4.40;;;25.60;39.70;;;;;;5116282;28;20102;-64
2023/06/16 12:47:16;;;;;;;6.03;3.83;;;25.60;40.10;;;;;;5118866;27;20116;-65
2023/06/16 12:49:42;;;;;;;8.13;4.22;;;25.50;40.30;;;;;;5116230;28;20028;-65
2023/06/16 12:52:08;;;;;;;9.63;4.15;;;25.50;40.70;;;;;;5097613;28;20036;-66